AirNav   Air Wisconsin pilot careers
 
 1435 users online  

S44 Spanaway Airport
Spanaway, Washington, USA

GOING TO SPANAWAY?


FAA INFORMATION EFFECTIVE 24 MAY 2018

Location

FAA Identifier: S44
Lat/Long: 47-05-12.7920N / 122-25-53.0210W
47-05.213200N / 122-25.883683W
47.0868867 / -122.4313947
(estimated)
Elevation: 385 ft. / 117.3 m (surveyed)
Variation: 20E (1985)
From city: 1 mile S of SPANAWAY, WA
Time zone: UTC -7 (UTC -8 during Standard Time)
Zip code: 98387

Airport Operations

Airport use: Open to the public
Activation date: 04/1946
Control tower: no
ARTCC: SEATTLE CENTER
FSS: SEATTLE FLIGHT SERVICE STATION
NOTAMs facility: SEA (NOTAM-D service available)
Attendance: 0800-DUSK
Pattern altitude: 1000 ft. MSL
Wind indicator: yes
Segmented circle: yes
FADED 20' DIAMETER SEGMENTED CIRCLES PAINTED ON RY.
Lights: SS-SR
Landing fee: no, TIEDOWN FEE.

Airport Communications

CTAF: 122.9
SEATTLE APPROACH: 126.5
SEATTLE DEPARTURE: 126.5
WX AWOS-3 at PLU (6 nm E): 128.575 (253-848-2748)
WX ASOS at TIW (12 nm NW): PHONE 253-858-6507

Nearby radio navigation aids

VOR radial/distance  VOR name  Freq  Var
TCMr139/4.1MCCHORD VORTAC109.6015E
OLMr051/20.4OLYMPIA VORTAC113.4019E
SEAr174/21.5SEATTLE VORTAC116.8019E

 
NDB name  Hdg/Dist  Freq  Var  ID
LACOMAS031/7.032816ELAC .-.. .- -.-.
GRAYE102/8.021616EGRF --. .-. ..-.
PARKK176/27.228115EHPK .... .--. -.-
MASON COUNTY091/28.434819EMNC -- -. -.-.

Airport Services

Fuel available: 100LL
Parking: tiedowns
Bottled oxygen: NONE
Bulk oxygen: NONE

Runway Information

Runway 16/34

Dimensions: 2724 x 20 ft. / 830 x 6 m
Surface: asphalt, in fair condition
Weight bearing capacity: 
Single wheel: 12.0
Runway edge lights: low intensity
RUNWAY 16  RUNWAY 34
Latitude: 47-05.436517N47-04.988633N
Longitude: 122-25.872200W122-25.895300W
Elevation: 373.0 ft.373.0 ft.
Traffic pattern: leftright
Runway heading: 162 magnetic, 182 true342 magnetic, 002 true
Displaced threshold: 200 ft.no
Markings: nonenone
Touchdown point: yes, no lightsyes, no lights
Obstructions: 77 ft. trees, 348 ft. from runway, 147 ft. both sides of centerline, 1:1 slope to clear
6' FENCE AND 80' TREES IN PRIMARY SFC.
103 ft. trees, 804 ft. from runway, 140 ft. right of centerline, 5:1 slope to clear
+6' FNC, +6' HILL, BRUSH & TREES AT 170', 100' R; TREES AT 0-200', 125' L.

Airport Ownership and Management from official FAA records

Ownership: Privately-owned
Owner: SPANAWAY AIRPARK
203 188TH ST EAST
SPANAWAY, WA 98387
Phone 253-847-2266
Manager: GARY R LAWSON
203 188TH ST E
SPANAWAY, WA 98387
Phone 253-847-2266

Airport Operational Statistics

Aircraft based on the field: 30
Single engine airplanes: 30
    
Aircraft operations: avg 38/week *
75% local general aviation
25% transient general aviation
* for 12-month period ending 31 December 2016

Additional Remarks

TREES IN TRANSITIONAL SURFACES BOTH SIDES OF RY.
MILITARY TFC INVOF ARPT.
FOR CD CTC SEA APCH AT 206-214-4794.

Instrument Procedures

There are no published instrument procedures at S44.

Some nearby airports with instrument procedures:

KTCM - McChord Field Airport (Joint Base Lewis-McChord) (4 nm NW)
KPLU - Pierce County Airport - Thun Field (6 nm E)
KGRF - Gray Army Airfield (Joint Base Lewis-McChord) (6 nm W)
KTIW - Tacoma Narrows Airport (12 nm NW)
S50 - Auburn Municipal Airport (17 nm NE)
 
Loc | Ops | Rwys | IFR | FBO | Links
Com | Nav | Svcs | Stats | Notes

AirNav Hotels Sweepstakes
 
Area around S44 (Spanaway Airport)
 
Road maps at: MapQuest Bing Google
 
Aerial photo
WARNING: Photo may not be current or correct
Aerial photo of S44 (Spanaway Airport)
Taken in February 2007

Do you have a better or more recent aerial photo of Spanaway Airport that you would like to share? If so, please send us your photo.

 
Sectional chart

 
Airport distance calculator
Flying to Spanaway Airport? Find the distance to fly.

From to S44

Sunrise and sunset
Times for 25-May-2018
 Local
(UTC-7)
 Zulu
(UTC)
Morning civil twilight04:4711:47
Sunrise05:2412:24
Sunset20:4903:49
Evening civil twilight21:2704:27

Current date and time
Zulu (UTC)  25-May-2018 17:29:53
Local (UTC-7)  25-May-2018 10:29:53
 
METAR
KTCM 
2nm NW 
251713Z AUTO 00000KT 10SM OVC015 13/11 A3006 RMK AO2 CIG 014 RWY16 SLP183 $
KGRF 
6nm W 
251658Z 21003KT 10SM OVC015 12/11 A3005 RMK AO2A SLP180 T01240108
KPLU 
6nm E 
251715Z AUTO 00000KT 10SM OVC015 13/11 A3005 RMK AO2
KTIW 
12nm NW 
251653Z 27003KT 10SM OVC019 11/08 A3006 RMK AO2 SLP180 T01110078
TAF
KTCM 
2nm NW 
251609Z 2516/2619 30006KT 9999 BKN015 QNH3002INS TEMPO 2516/2519 SCT015 BECMG 2520/2521 33012KT 9999 SCT050 QNH2999INS BECMG 2605/2606 22006KT 9999 BKN020 QNH3005INS BECMG 2614/2615 20006KT 9999 BKN015 QNH3013INS TX18/2523Z TN09/2610Z
KGRF 
6nm W 
251609Z 2516/2619 20006KT 9999 BKN012 QNH3002INS TEMPO 2516/2519 SCT015 BECMG 2518/2519 30012KT 9999 SCT050 QNH2999INS BECMG 2605/2606 19006KT 9999 BKN020 QNH3005INS BECMG 2614/2615 17006KT 9999 BKN015 QNH3013INS TX18/2523Z TN09/2610Z
NOTAMs
Click for the latest NOTAMs
NOTAMs are issued by the DoD/FAA and will open in a separate window not controlled by AirNav.

 

 
 

FBO, Fuel Providers, and Aircraft Ground Support

  
 Business Name 
 
 Contact 
 
 Services / Description 
 
Fuel Prices
 
Comments
  
Spanaway Airport 253-847-2266
no information available

If you are affiliated with Spanaway Airport and would like to show here your services, contact info, web link, logo, and more, click here
100LL Mogas
AS --- $4.15 
SS $5.25 --- 
 Updated 16-Aug-2016
 
   write
AS=Assisted/Self Service
SS=Self service
Update Fuel Prices
 

Would you like to see your business listed on this page?

 If your business provides an interesting product or service to pilots, flight crews, aircraft, or users of the Spanaway Airport, you should consider listing it here.  To start the listing process, click on the button below
 
Add a business
 

Other Pages about Spanaway Airport

Update a link
 
Copyright © AirNav, LLC. All rights reserved. Privacy Policy  Contact